createdAt,value
2024-01-16T00:01:13.405Z,2.55
2024-01-16T00:03:42.989Z,2.58
2024-01-16T00:06:12.653Z,4.20
2024-01-16T00:08:43.136Z,2.17
2024-01-16T00:11:11.531Z,6.38
2024-01-16T00:13:39.492Z,2.30
2024-01-16T00:16:12.529Z,1.77
2024-01-16T00:18:40.632Z,3.20
2024-01-16T00:21:08.838Z,4.32
2024-01-16T00:23:38.762Z,3.20
2024-01-16T00:26:08.045Z,1.92
2024-01-16T00:28:36.795Z,1.90
2024-01-16T00:31:11.378Z,2.30
2024-01-16T00:33:40.165Z,3.83
2024-01-16T00:36:09.080Z,2.42
2024-01-16T00:38:39.155Z,3.38
2024-01-16T00:41:08.110Z,2.33
2024-01-16T00:43:36.993Z,2.22
2024-01-16T00:46:05.325Z,3.05
2024-01-16T00:48:34.413Z,2.33
2024-01-16T00:51:02.442Z,3.28
2024-01-16T00:53:30.507Z,2.83
2024-01-16T00:56:00.045Z,2.55
2024-01-16T00:58:28.477Z,3.42
2024-01-16T01:00:56.464Z,2.05
2024-01-16T01:03:24.496Z,2.80
2024-01-16T01:05:53.363Z,4.22
2024-01-16T01:08:21.685Z,3.65
2024-01-16T01:10:49.827Z,2.22
2024-01-16T01:13:20.877Z,5.18
2024-01-16T01:15:49.513Z,2.03
2024-01-16T01:18:18.045Z,2.47
2024-01-16T01:20:46.665Z,5.53
2024-01-16T01:23:16.439Z,2.58
2024-01-16T01:25:44.837Z,2.15
2024-01-16T01:28:13.726Z,4.07
2024-01-16T01:30:44.391Z,2.28
2024-01-16T01:33:14.958Z,2.90
2024-01-16T01:35:43.351Z,2.80
2024-01-16T01:38:12.361Z,2.25
2024-01-16T01:40:40.479Z,2.63
2024-01-16T01:43:25.379Z,3.08
2024-01-16T01:46:11.076Z,3.28
2024-01-16T01:48:41.298Z,3.70
2024-01-16T01:51:12.233Z,2.67
2024-01-16T01:53:44.053Z,2.70
2024-01-16T01:56:16.848Z,4.07
2024-01-16T01:58:48.902Z,2.20
2024-01-16T02:01:22.497Z,4.97
2024-01-16T02:03:53.485Z,3.33
2024-01-16T02:06:22.786Z,2.97
2024-01-16T02:08:51.765Z,2.95
2024-01-16T02:11:20.086Z,3.00
2024-01-16T02:13:48.529Z,2.00
2024-01-16T02:16:26.508Z,1.50
2024-01-16T02:18:55.451Z,3.13
2024-01-16T02:21:25.018Z,1.55
2024-01-16T02:23:56.529Z,3.80
2024-01-16T02:26:26.670Z,2.30
2024-01-16T02:28:55.057Z,3.63
2024-01-16T02:31:23.235Z,2.53
2024-01-16T02:33:51.670Z,2.53
2024-01-16T02:36:19.801Z,2.00
2024-01-16T02:38:48.936Z,3.53
2024-01-16T02:41:20.079Z,2.08
2024-01-16T02:43:53.766Z,1.65
2024-01-16T02:46:21.956Z,2.00
2024-01-16T02:48:50.744Z,2.70
2024-01-16T02:51:19.280Z,1.63
2024-01-16T02:53:47.838Z,1.95
2024-01-16T02:56:17.307Z,2.55
2024-01-16T02:58:48.568Z,2.17
2024-01-16T03:01:16.999Z,1.77
2024-01-16T03:03:46.065Z,2.15
2024-01-16T03:06:24.549Z,1.85
2024-01-16T03:08:53.873Z,2.28
2024-01-16T03:11:22.744Z,2.70
2024-01-16T03:13:53.859Z,3.13
2024-01-16T03:16:24.537Z,1.77
2024-01-16T03:18:54.647Z,1.55
2024-01-16T03:21:25.477Z,1.67
2024-01-16T03:24:02.282Z,2.30
2024-01-16T03:26:34.549Z,3.28
2024-01-16T03:29:04.177Z,3.38
2024-01-16T03:31:32.764Z,1.45
2024-01-16T03:34:03.162Z,4.07
2024-01-16T03:36:31.530Z,2.78
2024-01-16T03:38:59.740Z,3.00
2024-01-16T03:41:27.951Z,2.15
2024-01-16T03:43:57.777Z,2.75
2024-01-16T03:46:27.485Z,2.70
2024-01-16T03:48:59.083Z,2.92
2024-01-16T03:51:32.356Z,2.00
2024-01-16T03:54:01.264Z,2.30
2024-01-16T03:56:29.513Z,4.53
2024-01-16T03:58:57.543Z,2.67
2024-01-16T04:01:34.240Z,3.53
2024-01-16T04:04:03.077Z,3.72
2024-01-16T04:06:32.524Z,2.20
2024-01-16T04:09:00.950Z,1.65
2024-01-16T04:11:29.145Z,3.03
2024-01-16T04:13:57.863Z,5.00
2024-01-16T04:16:26.122Z,3.90
2024-01-16T04:18:56.560Z,3.72
2024-01-16T04:21:24.828Z,7.45
2024-01-16T04:23:53.606Z,5.88
2024-01-16T04:26:23.071Z,3.42
2024-01-16T04:28:51.169Z,5.68
2024-01-16T04:31:20.577Z,4.15
2024-01-16T04:33:48.634Z,1.90
2024-01-16T04:36:18.210Z,2.55
2024-01-16T04:38:46.730Z,3.72
2024-01-16T04:41:16.703Z,3.58
2024-01-16T04:43:46.093Z,1.90
2024-01-16T04:46:14.929Z,2.67
2024-01-16T04:48:43.289Z,4.25
2024-01-16T04:51:11.289Z,4.88
2024-01-16T04:53:41.743Z,3.95
2024-01-16T04:56:12.845Z,1.60
2024-01-16T04:58:41.695Z,4.35
2024-01-16T05:01:11.695Z,4.63
2024-01-16T05:03:39.996Z,2.22
2024-01-16T05:06:18.798Z,4.43
2024-01-16T05:08:49.947Z,3.83
2024-01-16T05:11:18.713Z,2.15
2024-01-16T05:13:47.116Z,2.15
2024-01-16T05:16:16.107Z,3.80
2024-01-16T05:18:44.690Z,3.03
2024-01-16T05:21:13.506Z,3.15
2024-01-16T05:23:44.580Z,2.38
2024-01-16T05:26:17.352Z,2.28
2024-01-16T05:28:47.998Z,3.13
2024-01-16T05:31:15.925Z,2.90
2024-01-16T05:33:45.083Z,2.92
2024-01-16T05:36:13.634Z,2.55
2024-01-16T05:38:42.241Z,4.32
2024-01-16T05:41:15.493Z,3.85
2024-01-16T05:43:47.523Z,2.15
2024-01-16T05:46:16.029Z,3.58
2024-01-16T05:48:45.493Z,2.88
2024-01-16T05:51:13.941Z,2.50
2024-01-16T05:53:41.974Z,7.78
2024-01-16T05:56:10.774Z,3.08
2024-01-16T05:58:40.235Z,3.97
2024-01-16T06:01:15.188Z,2.55
2024-01-16T06:03:47.672Z,3.85
2024-01-16T06:06:15.971Z,2.47
2024-01-16T06:08:45.999Z,2.72
2024-01-16T06:11:15.364Z,2.22
2024-01-16T06:13:43.556Z,2.38
2024-01-16T06:16:14.458Z,2.28
2024-01-16T06:18:42.738Z,3.72
2024-01-16T06:21:13.753Z,3.70
2024-01-16T06:23:41.993Z,2.65
2024-01-16T06:26:12.636Z,3.15
2024-01-16T06:28:44.671Z,2.60
2024-01-16T06:31:14.427Z,4.00
2024-01-16T06:33:42.824Z,3.78
2024-01-16T06:36:11.375Z,3.85
2024-01-16T06:38:42.095Z,5.80
2024-01-16T06:41:11.588Z,4.88
2024-01-16T06:43:40.552Z,3.15
2024-01-16T06:46:08.499Z,3.80
2024-01-16T06:48:39.133Z,4.13
2024-01-16T06:51:09.126Z,7.90
2024-01-16T06:53:37.343Z,3.58
2024-01-16T06:56:09.491Z,5.07
2024-01-16T06:58:41.756Z,3.57
2024-01-16T07:01:12.309Z,4.20
2024-01-16T07:03:42.966Z,4.03
2024-01-16T07:06:12.009Z,3.50
2024-01-16T07:08:40.178Z,5.63
2024-01-16T07:11:10.040Z,8.20
2024-01-16T07:13:37.963Z,3.10
2024-01-16T07:16:09.128Z,4.68
2024-01-16T07:18:40.262Z,4.40
2024-01-16T07:21:22.976Z,2.85
2024-01-16T07:23:51.352Z,3.50
2024-01-16T07:26:21.632Z,3.40
2024-01-16T07:28:49.905Z,3.85
2024-01-16T07:31:19.439Z,3.67
2024-01-16T07:33:48.779Z,3.95
2024-01-16T07:36:17.675Z,4.82
2024-01-16T07:38:47.224Z,6.50
2024-01-16T07:41:15.257Z,5.50
2024-01-16T07:43:48.949Z,5.50
2024-01-16T07:46:23.008Z,4.68
2024-01-16T07:48:53.753Z,5.43
2024-01-16T07:51:22.525Z,5.45
2024-01-16T07:54:06.341Z,4.93
2024-01-16T07:56:34.697Z,8.55
2024-01-16T07:59:03.425Z,6.50
2024-01-16T08:01:32.126Z,5.18
2024-01-16T08:04:04.228Z,7.95
2024-01-16T08:09:02.498Z,5.45
2024-01-16T08:11:30.793Z,4.00
2024-01-16T08:14:01.846Z,5.63
2024-01-16T08:16:29.816Z,6.05
2024-01-16T08:18:58.042Z,9.25
2024-01-16T08:21:26.310Z,9.82
2024-01-16T08:23:56.857Z,10.40
2024-01-16T08:26:26.840Z,6.78
2024-01-16T08:28:55.266Z,7.75
2024-01-16T08:31:24.708Z,5.53
2024-01-16T08:33:54.531Z,8.85
2024-01-16T08:36:23.077Z,6.10
2024-01-16T08:38:51.531Z,5.45
2024-01-16T08:41:19.950Z,4.20
2024-01-16T08:43:52.373Z,6.38
2024-01-16T08:46:24.109Z,5.93
2024-01-16T08:48:52.689Z,4.57
2024-01-16T08:51:27.896Z,7.18
2024-01-16T08:53:56.049Z,5.75
2024-01-16T08:56:24.166Z,5.22
2024-01-16T08:58:53.925Z,4.43
2024-01-16T09:01:23.461Z,5.93
2024-01-16T09:03:51.988Z,4.90
2024-01-16T09:06:23.101Z,4.80
2024-01-16T09:08:51.211Z,5.17
2024-01-16T09:11:19.421Z,5.75
2024-01-16T09:13:48.850Z,5.95
2024-01-16T09:16:18.424Z,12.15
2024-01-16T09:18:46.889Z,4.85
2024-01-16T09:21:17.738Z,6.05
2024-01-16T09:23:46.543Z,4.00
2024-01-16T09:26:14.574Z,6.68
2024-01-16T09:28:45.526Z,6.35
2024-01-16T09:31:13.951Z,9.23
2024-01-16T09:33:44.637Z,6.75
2024-01-16T09:36:12.810Z,8.80
2024-01-16T09:38:42.227Z,11.30
2024-01-16T09:41:22.178Z,8.30
2024-01-16T09:43:50.702Z,10.90
2024-01-16T09:46:20.542Z,4.43
2024-01-16T09:48:52.201Z,5.47
2024-01-16T09:51:20.169Z,3.95
2024-01-16T09:53:49.156Z,8.45
2024-01-16T09:56:18.970Z,7.55
2024-01-16T09:58:49.247Z,7.93
2024-01-16T10:01:19.120Z,7.43
2024-01-16T10:03:51.028Z,4.70
2024-01-16T10:06:24.164Z,5.43
2024-01-16T10:08:55.092Z,8.05
2024-01-16T10:11:23.293Z,5.65
2024-01-16T10:13:52.345Z,4.82
2024-01-16T10:16:23.586Z,3.75
2024-01-16T10:19:07.581Z,5.13
2024-01-16T10:24:15.028Z,4.60
2024-01-16T10:26:43.236Z,5.20
2024-01-16T10:29:11.654Z,5.50
2024-01-16T10:31:41.616Z,3.85
2024-01-16T10:34:25.427Z,5.22
2024-01-16T10:37:00.467Z,6.28
2024-01-16T10:39:38.201Z,5.43
2024-01-16T10:42:09.515Z,7.45
2024-01-16T10:44:39.499Z,6.70
2024-01-16T10:47:14.041Z,4.88
2024-01-16T10:49:46.724Z,6.85
2024-01-16T10:52:14.857Z,4.50
2024-01-16T10:54:45.608Z,5.97
2024-01-16T10:57:15.288Z,7.22
2024-01-16T10:59:51.093Z,6.65
2024-01-16T11:02:21.598Z,7.70
2024-01-16T11:04:53.413Z,6.03
2024-01-16T11:07:23.595Z,7.93
2024-01-16T11:09:52.378Z,7.22
2024-01-16T11:12:23.458Z,4.15
2024-01-16T11:14:54.066Z,5.63
2024-01-16T11:17:24.832Z,5.82
2024-01-16T11:20:07.705Z,5.38
2024-01-16T11:22:47.097Z,3.95
2024-01-16T11:25:16.347Z,7.25
2024-01-16T11:27:45.769Z,8.65
2024-01-16T11:30:17.262Z,8.15
2024-01-16T11:32:48.316Z,5.80
2024-01-16T11:35:35.990Z,5.55
2024-01-16T11:38:08.546Z,5.53
2024-01-16T11:40:37.086Z,4.97
2024-01-16T11:43:38.812Z,3.97
2024-01-16T11:46:08.702Z,3.55
2024-01-16T11:48:37.452Z,5.70
2024-01-16T11:51:26.075Z,4.60
2024-01-16T11:53:54.328Z,6.60
2024-01-16T11:56:46.120Z,2.85
2024-01-16T11:59:49.664Z,5.05
2024-01-16T12:02:23.385Z,6.22
2024-01-16T12:05:06.765Z,9.18
2024-01-16T12:07:51.877Z,7.10
2024-01-16T12:10:20.672Z,6.47
2024-01-16T12:12:53.239Z,3.67
2024-01-16T12:15:22.574Z,4.57
2024-01-16T12:17:56.146Z,6.00
2024-01-16T12:20:26.940Z,5.63
2024-01-16T12:22:58.621Z,4.45
2024-01-16T12:25:59.413Z,4.27
2024-01-16T12:28:28.016Z,4.47
2024-01-16T12:31:01.404Z,4.45
2024-01-16T12:33:30.228Z,4.32
2024-01-16T12:36:04.552Z,2.90
2024-01-16T12:38:34.416Z,3.25
2024-01-16T12:41:04.176Z,3.90
2024-01-16T12:43:34.163Z,4.13
2024-01-16T12:46:02.543Z,2.90
2024-01-16T12:48:31.325Z,9.60
2024-01-16T12:51:03.953Z,4.00
2024-01-16T12:53:35.133Z,19.95
2024-01-16T12:56:04.904Z,9.73
2024-01-16T12:58:36.788Z,6.13
2024-01-16T13:01:35.061Z,4.07
2024-01-16T13:06:40.395Z,2.90
2024-01-16T13:09:16.246Z,2.10
2024-01-16T13:12:02.325Z,4.00
2024-01-16T13:14:31.646Z,3.35
2024-01-16T13:17:00.229Z,2.95
2024-01-16T13:19:31.039Z,4.90
2024-01-16T13:21:59.089Z,4.00
2024-01-16T13:24:28.772Z,2.35
2024-01-16T13:26:56.932Z,5.90
2024-01-16T13:29:25.072Z,5.05
2024-01-16T13:31:57.213Z,4.35
2024-01-16T13:34:27.159Z,4.65
2024-01-16T13:37:14.769Z,3.70
2024-01-16T13:39:46.119Z,3.83
2024-01-16T13:42:14.318Z,2.50
2024-01-16T13:44:43.352Z,4.05
2024-01-16T13:47:13.698Z,5.72
2024-01-16T13:49:44.695Z,4.40
2024-01-16T13:52:14.363Z,1.75
2024-01-16T13:54:43.235Z,6.30
2024-01-16T13:57:14.053Z,5.60
2024-01-16T13:59:42.382Z,2.35
2024-01-16T14:02:10.772Z,2.58
2024-01-16T14:04:39.626Z,3.15
2024-01-16T14:07:12.555Z,3.30
2024-01-16T14:09:44.912Z,2.38
2024-01-16T14:12:20.071Z,4.40
2024-01-16T14:14:48.809Z,2.70
2024-01-16T14:17:17.109Z,4.05
2024-01-16T14:19:45.098Z,3.33
2024-01-16T14:22:13.364Z,3.42
2024-01-16T14:24:42.153Z,3.45
2024-01-16T14:27:11.785Z,4.20
2024-01-16T14:29:44.333Z,4.13
2024-01-16T14:32:12.393Z,4.40
2024-01-16T14:34:40.589Z,4.82
2024-01-16T14:37:11.066Z,5.10
2024-01-16T14:39:39.528Z,4.95
2024-01-16T14:42:08.822Z,5.47
2024-01-16T14:44:37.160Z,4.28
2024-01-16T14:47:14.642Z,3.90
2024-01-16T14:49:43.179Z,3.35
2024-01-16T14:52:12.200Z,4.15
2024-01-16T14:54:42.775Z,4.82
2024-01-16T14:57:12.474Z,3.90
2024-01-16T14:59:40.624Z,4.28
2024-01-16T15:02:14.554Z,3.80
2024-01-16T15:04:47.196Z,5.72
2024-01-16T15:07:18.204Z,3.90
2024-01-16T15:09:46.752Z,5.25
2024-01-16T15:12:17.802Z,4.18
2024-01-16T15:14:46.347Z,5.95
2024-01-16T15:17:15.853Z,5.18
2024-01-16T15:19:44.172Z,4.03
2024-01-16T15:22:12.273Z,5.45
2024-01-16T15:24:43.169Z,6.63
2024-01-16T15:27:11.312Z,4.07
2024-01-16T15:29:39.413Z,5.72
2024-01-16T15:32:08.328Z,3.28
2024-01-16T15:34:41.874Z,5.10
2024-01-16T15:37:10.074Z,5.10
2024-01-16T15:39:38.701Z,4.20
2024-01-16T15:42:07.937Z,3.80
2024-01-16T15:44:36.644Z,3.30
2024-01-16T15:47:05.600Z,6.35
2024-01-16T15:49:34.137Z,4.72
2024-01-16T15:52:04.135Z,5.32
2024-01-16T15:54:35.561Z,4.65
2024-01-16T15:57:05.237Z,5.63
2024-01-16T15:59:33.237Z,4.32
2024-01-16T16:02:03.982Z,3.70
2024-01-16T16:04:32.447Z,2.92
2024-01-16T16:07:01.465Z,4.65
2024-01-16T16:09:41.951Z,5.32
2024-01-16T16:12:10.452Z,5.90
2024-01-16T16:14:41.766Z,5.43
2024-01-16T16:17:10.464Z,5.63
2024-01-16T16:19:38.931Z,3.75
2024-01-16T16:22:08.063Z,6.63
2024-01-16T16:24:37.551Z,5.18
2024-01-16T16:27:33.934Z,4.95
2024-01-16T16:30:10.047Z,4.68
2024-01-16T16:34:16.705Z,5.70
2024-01-16T16:40:56.689Z,8.52
2024-01-16T16:43:55.618Z,4.47
2024-01-16T16:49:48.129Z,7.15
2024-01-16T16:56:07.277Z,7.47
2024-01-16T17:46:18.362Z,21.02
2024-01-16T17:53:52.617Z,10.65
2024-01-16T18:23:51.608Z,11.57
2024-01-16T18:26:20.179Z,11.85
2024-01-16T18:28:48.159Z,10.55
2024-01-16T18:31:21.598Z,14.70
2024-01-16T18:33:50.981Z,11.88
2024-01-16T18:36:21.337Z,13.43
2024-01-16T18:38:51.696Z,12.73
2024-01-16T18:41:19.862Z,11.73
2024-01-16T18:43:49.045Z,12.57
2024-01-16T18:46:21.774Z,16.40
2024-01-16T18:48:51.023Z,12.50
2024-01-16T18:51:19.357Z,11.75
2024-01-16T18:53:50.944Z,11.95
2024-01-16T18:56:20.568Z,12.40
2024-01-16T18:58:48.517Z,11.40
2024-01-16T19:01:16.782Z,11.40
2024-01-16T19:03:44.996Z,10.85
2024-01-16T19:06:14.782Z,15.05
2024-01-16T19:08:45.653Z,21.15
2024-01-16T19:11:14.212Z,32.38
2024-01-16T19:13:45.714Z,26.02
2024-01-16T19:16:18.391Z,22.20
2024-01-16T19:18:47.157Z,14.95
2024-01-16T19:21:15.183Z,18.70
2024-01-16T19:23:44.031Z,15.55
2024-01-16T19:26:12.684Z,16.45
2024-01-16T19:28:40.859Z,18.27
2024-01-16T19:31:11.270Z,19.02
2024-01-16T19:33:41.474Z,14.95
2024-01-16T19:36:10.002Z,14.00
2024-01-16T19:38:38.990Z,14.10
2024-01-16T19:41:07.166Z,15.32
2024-01-16T19:43:36.578Z,10.90
2024-01-16T19:46:05.063Z,15.73
2024-01-16T19:48:41.061Z,16.05
2024-01-16T19:51:11.443Z,15.55
2024-01-16T19:53:39.849Z,15.57
2024-01-16T19:56:08.930Z,10.40
2024-01-16T19:58:38.767Z,17.70
2024-01-16T20:01:09.459Z,10.90
2024-01-16T20:03:42.501Z,13.75
2024-01-16T20:06:14.126Z,14.82
2024-01-16T20:08:44.049Z,11.55
2024-01-16T20:11:12.197Z,18.95
2024-01-16T20:13:40.361Z,12.77
2024-01-16T20:16:08.908Z,15.38
2024-01-16T20:18:38.960Z,13.32
2024-01-16T20:21:08.115Z,14.20
2024-01-16T20:23:37.785Z,14.35
2024-01-16T20:26:07.841Z,10.50
2024-01-16T20:28:35.874Z,13.52
2024-01-16T20:31:04.017Z,10.57
2024-01-16T20:33:32.336Z,13.75
2024-01-16T20:36:02.652Z,14.57
2024-01-16T20:38:31.196Z,12.90
2024-01-16T20:40:59.201Z,11.10
2024-01-16T20:43:27.969Z,9.27
2024-01-16T20:46:02.184Z,10.63
2024-01-16T20:48:31.057Z,8.32
2024-01-16T20:51:02.751Z,8.75
2024-01-16T20:53:31.180Z,11.38
2024-01-16T20:55:59.790Z,9.30
2024-01-16T20:58:28.429Z,10.40
2024-01-16T21:00:57.350Z,11.32
2024-01-16T21:03:28.887Z,11.95
2024-01-16T21:05:59.159Z,9.95
2024-01-16T21:08:29.026Z,8.00
2024-01-16T21:10:57.028Z,6.97
2024-01-16T21:13:28.206Z,7.50
2024-01-16T21:15:57.819Z,8.80
2024-01-16T21:18:32.085Z,5.85
2024-01-16T21:21:00.815Z,7.85
2024-01-16T21:23:32.437Z,9.18
2024-01-16T21:26:01.549Z,9.02
2024-01-16T21:28:30.569Z,11.75
2024-01-16T21:31:02.888Z,9.90
2024-01-16T21:33:31.487Z,8.80
2024-01-16T21:36:02.556Z,5.88
2024-01-16T21:38:32.492Z,8.45
2024-01-16T21:41:00.827Z,8.90
2024-01-16T21:43:31.234Z,7.07
2024-01-16T21:45:59.925Z,6.53
2024-01-16T21:48:31.006Z,6.68
2024-01-16T21:51:01.532Z,6.07
2024-01-16T21:53:31.383Z,7.38
2024-01-16T21:55:59.518Z,8.57
2024-01-16T21:58:27.571Z,7.95
2024-01-16T22:00:57.377Z,10.10
2024-01-16T22:03:25.313Z,6.90
2024-01-16T22:05:53.368Z,10.18
2024-01-16T22:08:22.398Z,10.07
2024-01-16T22:10:51.845Z,7.05
2024-01-16T22:13:23.689Z,5.45
2024-01-16T22:15:52.535Z,11.60
2024-01-16T22:18:20.661Z,7.78
2024-01-16T22:20:49.023Z,14.15
2024-01-16T22:23:17.238Z,8.57
2024-01-16T22:25:45.406Z,6.97
2024-01-16T22:28:15.234Z,11.68
2024-01-16T22:30:43.763Z,5.28
2024-01-16T22:33:13.609Z,8.15
2024-01-16T22:35:41.747Z,7.70
2024-01-16T22:38:11.893Z,7.45
2024-01-16T22:40:40.106Z,8.77
2024-01-16T22:43:10.950Z,8.27
2024-01-16T22:45:41.070Z,7.30
2024-01-16T22:48:12.854Z,7.75
2024-01-16T22:50:42.298Z,7.63
2024-01-16T22:53:12.008Z,10.27
2024-01-16T22:55:39.898Z,10.07
2024-01-16T22:58:09.016Z,9.65
2024-01-16T23:00:42.504Z,9.85
2024-01-16T23:03:13.140Z,9.10
2024-01-16T23:05:41.627Z,10.43
2024-01-16T23:08:14.202Z,10.57
2024-01-16T23:10:42.569Z,10.60
2024-01-16T23:13:11.262Z,9.27
2024-01-16T23:15:39.322Z,7.97
2024-01-16T23:18:08.124Z,10.43
2024-01-16T23:20:37.829Z,8.50
2024-01-16T23:23:08.186Z,8.32
2024-01-16T23:25:36.659Z,8.48
2024-01-16T23:28:05.556Z,8.43
2024-01-16T23:30:35.206Z,10.02
2024-01-16T23:33:05.360Z,7.70
2024-01-16T23:35:33.786Z,7.47
2024-01-16T23:38:03.246Z,9.60
2024-01-16T23:40:31.828Z,9.13
2024-01-16T23:43:00.820Z,8.60
2024-01-16T23:45:33.272Z,9.43
2024-01-16T23:48:02.374Z,7.63
2024-01-16T23:50:30.710Z,6.43
2024-01-16T23:53:02.210Z,13.55
2024-01-16T23:55:32.074Z,7.63
2024-01-16T23:58:00.277Z,9.65
